createdAt,value
2023-05-24T00:01:59.756Z,3.60
2023-05-24T00:04:30.144Z,3.00
2023-05-24T00:06:57.010Z,3.20
2023-05-24T00:09:23.879Z,3.20
2023-05-24T00:11:50.491Z,2.88
2023-05-24T00:14:17.102Z,3.03
2023-05-24T00:16:43.758Z,3.42
2023-05-24T00:19:11.273Z,3.50
2023-05-24T00:21:38.374Z,3.60
2023-05-24T00:24:05.210Z,3.00
2023-05-24T00:26:33.279Z,3.35
2023-05-24T00:28:59.778Z,2.90
2023-05-24T00:31:26.306Z,2.80
2023-05-24T00:33:52.824Z,2.53
2023-05-24T00:36:19.476Z,3.53
2023-05-24T00:38:46.014Z,3.13
2023-05-24T00:41:12.618Z,2.63
2023-05-24T00:43:39.214Z,2.95
2023-05-24T00:46:18.010Z,2.70
2023-05-24T00:48:45.960Z,2.72
2023-05-24T00:51:14.536Z,2.63
2023-05-24T00:53:44.971Z,3.10
2023-05-24T00:56:22.030Z,2.90
2023-05-24T00:58:50.423Z,3.15
2023-05-24T01:01:17.088Z,2.85
2023-05-24T01:03:55.704Z,3.35
2023-05-24T01:06:23.378Z,2.83
2023-05-24T01:09:08.325Z,3.00
2023-05-24T01:11:59.413Z,2.83
2023-05-24T01:14:41.721Z,3.15
2023-05-24T01:17:51.777Z,3.10
2023-05-24T01:20:22.508Z,2.50
2023-05-24T01:23:07.227Z,3.95
2023-05-24T01:25:49.731Z,2.85
2023-05-24T01:28:27.599Z,2.75
2023-05-24T01:31:04.259Z,2.90
2023-05-24T01:33:31.053Z,3.17
2023-05-24T01:35:57.599Z,2.80
2023-05-24T01:38:29.588Z,3.30
2023-05-24T01:41:13.437Z,2.85
2023-05-24T01:43:54.568Z,3.35
2023-05-24T01:46:37.776Z,3.28
2023-05-24T01:49:30.805Z,3.13
2023-05-24T01:52:14.412Z,3.22
2023-05-24T01:54:47.686Z,3.60
2023-05-24T01:57:15.388Z,3.58
2023-05-24T01:59:45.351Z,3.20
2023-05-24T02:02:12.683Z,3.55
2023-05-24T02:04:40.109Z,3.40
2023-05-24T02:07:22.221Z,2.92
2023-05-24T02:09:48.773Z,3.10
2023-05-24T02:12:15.296Z,3.70
2023-05-24T02:14:53.296Z,3.55
2023-05-24T02:17:26.908Z,3.83
2023-05-24T02:19:53.633Z,3.45
2023-05-24T02:22:22.266Z,3.50
2023-05-24T02:24:48.899Z,3.80
2023-05-24T02:27:15.436Z,3.20
2023-05-24T02:29:42.118Z,3.30
2023-05-24T02:32:08.824Z,3.20
2023-05-24T02:34:35.650Z,3.60
2023-05-24T02:37:07.205Z,3.83
2023-05-24T02:39:33.784Z,3.72
2023-05-24T02:42:00.521Z,3.40
2023-05-24T02:44:27.040Z,3.05
2023-05-24T02:46:53.577Z,2.90
2023-05-24T02:49:20.090Z,2.80
2023-05-24T02:51:46.614Z,2.85
2023-05-24T02:54:13.158Z,3.20
2023-05-24T02:56:39.821Z,3.10
2023-05-24T02:59:06.447Z,3.33
2023-05-24T03:01:34.376Z,3.60
2023-05-24T03:04:01.088Z,3.83
2023-05-24T03:06:27.763Z,9.18
2023-05-24T03:08:54.445Z,5.22
2023-05-24T03:11:24.068Z,4.35
2023-05-24T03:13:52.903Z,3.38
2023-05-24T03:16:19.873Z,6.30
2023-05-24T03:18:46.795Z,3.42
2023-05-24T03:21:13.366Z,4.15
2023-05-24T03:23:39.950Z,3.75
2023-05-24T03:26:07.327Z,3.25
2023-05-24T03:28:33.880Z,6.80
2023-05-24T03:31:00.909Z,3.20
2023-05-24T03:33:27.425Z,3.80
2023-05-24T03:35:53.966Z,3.20
2023-05-24T03:38:20.523Z,2.88
2023-05-24T03:40:47.004Z,3.30
2023-05-24T03:43:28.180Z,3.55
2023-05-24T03:45:56.280Z,3.97
2023-05-24T03:48:28.119Z,3.72
2023-05-24T03:50:54.649Z,3.05
2023-05-24T03:53:30.638Z,3.47
2023-05-24T03:55:57.123Z,5.40
2023-05-24T03:58:23.699Z,4.13
2023-05-24T04:00:50.818Z,4.72
2023-05-24T04:03:20.041Z,3.75
2023-05-24T04:05:47.384Z,3.97
2023-05-24T04:08:15.025Z,4.32
2023-05-24T04:10:42.202Z,3.97
2023-05-24T04:13:09.249Z,3.92
2023-05-24T04:15:36.091Z,4.35
2023-05-24T04:18:03.672Z,4.55
2023-05-24T04:20:30.378Z,4.18
2023-05-24T04:22:57.059Z,4.15
2023-05-24T04:25:23.795Z,4.60
2023-05-24T04:27:50.454Z,4.80
2023-05-24T04:30:21.259Z,5.13
2023-05-24T04:32:48.477Z,5.00
2023-05-24T04:35:20.648Z,4.82
2023-05-24T04:37:48.341Z,6.13
2023-05-24T04:40:16.317Z,5.13
2023-05-24T04:42:43.195Z,5.25
2023-05-24T04:45:18.702Z,5.93
2023-05-24T04:47:45.318Z,5.57
2023-05-24T04:50:15.090Z,5.70
2023-05-24T04:52:41.781Z,5.57
2023-05-24T04:55:08.831Z,4.35
2023-05-24T04:57:35.445Z,3.80
2023-05-24T05:00:02.111Z,4.22
2023-05-24T05:02:28.979Z,5.55
2023-05-24T05:04:55.537Z,5.55
2023-05-24T05:07:22.468Z,5.20
2023-05-24T05:09:49.050Z,6.07
2023-05-24T05:12:15.955Z,6.00
2023-05-24T05:14:44.978Z,6.10
2023-05-24T05:17:11.466Z,6.82
2023-05-24T05:19:43.958Z,6.75
2023-05-24T05:22:10.918Z,7.70
2023-05-24T05:24:39.820Z,7.60
2023-05-24T05:27:06.672Z,7.25
2023-05-24T05:29:33.216Z,7.53
2023-05-24T05:31:59.742Z,7.18
2023-05-24T05:34:26.284Z,6.90
2023-05-24T05:36:55.126Z,6.38
2023-05-24T05:39:21.665Z,10.45
2023-05-24T05:41:48.238Z,9.02
2023-05-24T05:44:15.008Z,7.22
2023-05-24T05:46:55.262Z,5.35
2023-05-24T05:49:21.745Z,6.38
2023-05-24T05:51:49.357Z,9.35
2023-05-24T05:54:18.279Z,6.82
2023-05-24T05:56:50.532Z,5.88
2023-05-24T05:59:17.427Z,5.65
2023-05-24T06:01:49.003Z,4.90
2023-05-24T06:04:16.376Z,7.05
2023-05-24T06:06:45.272Z,6.13
2023-05-24T06:09:12.098Z,5.95
2023-05-24T06:11:39.735Z,7.82
2023-05-24T06:14:07.037Z,7.45
2023-05-24T06:16:34.016Z,5.55
2023-05-24T06:19:06.090Z,5.40
2023-05-24T06:21:33.445Z,5.25
2023-05-24T06:24:02.411Z,4.82
2023-05-24T06:26:28.926Z,5.25
2023-05-24T06:28:56.186Z,5.47
2023-05-24T06:31:22.925Z,7.45
2023-05-24T06:33:59.727Z,9.35
2023-05-24T06:36:30.010Z,5.43
2023-05-24T06:38:56.597Z,5.05
2023-05-24T06:41:27.048Z,5.50
2023-05-24T06:43:53.687Z,5.35
2023-05-24T06:46:23.305Z,5.78
2023-05-24T06:48:49.929Z,6.93
2023-05-24T06:51:17.117Z,5.30
2023-05-24T06:53:43.613Z,5.55
2023-05-24T06:56:10.174Z,5.93
2023-05-24T06:58:36.731Z,8.85
2023-05-24T07:01:05.044Z,5.43
2023-05-24T07:03:32.409Z,4.93
2023-05-24T07:05:59.157Z,6.50
2023-05-24T07:08:25.729Z,5.40
2023-05-24T07:10:57.067Z,5.70
2023-05-24T07:13:28.464Z,4.85
2023-05-24T07:15:54.992Z,5.78
2023-05-24T07:18:21.583Z,4.75
2023-05-24T07:20:48.233Z,5.32
2023-05-24T07:23:18.152Z,4.38
2023-05-24T07:25:44.693Z,4.93
2023-05-24T07:28:11.511Z,5.25
2023-05-24T07:30:39.341Z,5.53
2023-05-24T07:33:05.956Z,4.70
2023-05-24T07:35:33.918Z,5.43
2023-05-24T07:38:26.956Z,4.97
2023-05-24T07:40:56.155Z,4.97
2023-05-24T07:43:22.713Z,4.78
2023-05-24T07:45:55.687Z,5.60
2023-05-24T07:48:24.108Z,4.55
2023-05-24T07:51:09.079Z,5.05
2023-05-24T07:53:37.596Z,4.90
2023-05-24T07:56:04.434Z,6.68
2023-05-24T07:58:31.703Z,4.13
2023-05-24T08:00:58.293Z,4.60
2023-05-24T08:03:25.939Z,5.20
2023-05-24T08:05:53.463Z,5.40
2023-05-24T08:08:20.335Z,4.70
2023-05-24T08:10:46.899Z,4.97
2023-05-24T08:13:13.462Z,5.38
2023-05-24T08:15:40.125Z,5.28
2023-05-24T08:18:11.596Z,5.10
2023-05-24T08:20:41.091Z,5.00
2023-05-24T08:23:08.097Z,4.70
2023-05-24T08:25:34.593Z,4.80
2023-05-24T08:28:01.298Z,4.63
2023-05-24T08:30:27.950Z,4.90
2023-05-24T08:32:54.572Z,4.80
2023-05-24T08:35:22.126Z,5.22
2023-05-24T08:37:49.566Z,4.93
2023-05-24T08:40:16.701Z,3.88
2023-05-24T08:42:45.108Z,4.30
2023-05-24T08:45:13.900Z,4.07
2023-05-24T08:47:41.034Z,4.65
2023-05-24T08:50:08.699Z,4.38
2023-05-24T08:52:36.671Z,4.47
2023-05-24T08:55:07.375Z,4.45
2023-05-24T08:57:35.725Z,4.30
2023-05-24T09:00:02.358Z,4.35
2023-05-24T09:02:30.931Z,4.65
2023-05-24T09:04:59.496Z,4.68
2023-05-24T09:07:26.860Z,4.28
2023-05-24T09:10:06.740Z,4.90
2023-05-24T09:12:38.588Z,6.15
2023-05-24T09:15:17.472Z,5.18
2023-05-24T09:17:44.346Z,5.43
2023-05-24T09:20:13.309Z,4.78
2023-05-24T09:22:43.032Z,4.88
2023-05-24T09:25:14.104Z,4.78
2023-05-24T09:27:41.459Z,5.70
2023-05-24T09:30:12.420Z,5.50
2023-05-24T09:32:39.270Z,5.43
2023-05-24T09:35:09.968Z,4.63
2023-05-24T09:37:38.755Z,4.18
2023-05-24T09:40:10.908Z,4.30
2023-05-24T09:42:38.057Z,4.85
2023-05-24T09:45:12.132Z,4.60
2023-05-24T09:47:54.854Z,4.45
2023-05-24T09:50:21.643Z,4.10
2023-05-24T09:52:48.286Z,4.30
2023-05-24T09:55:16.266Z,4.28
2023-05-24T09:58:04.457Z,4.43
2023-05-24T10:00:41.290Z,3.63
2023-05-24T10:03:15.094Z,4.57
2023-05-24T10:05:46.666Z,5.10
2023-05-24T10:08:14.560Z,4.18
2023-05-24T10:10:43.365Z,3.80
2023-05-24T10:13:11.550Z,4.07
2023-05-24T10:15:38.473Z,3.67
2023-05-24T10:18:10.623Z,4.38
2023-05-24T10:20:41.084Z,3.67
2023-05-24T10:23:12.934Z,4.20
2023-05-24T10:25:51.077Z,3.40
2023-05-24T10:28:21.457Z,3.80
2023-05-24T10:31:03.199Z,3.95
2023-05-24T10:33:34.542Z,3.63
2023-05-24T10:36:03.937Z,4.03
2023-05-24T10:38:33.903Z,4.20
2023-05-24T10:41:00.690Z,4.45
2023-05-24T10:43:27.410Z,3.92
2023-05-24T10:45:54.003Z,4.18
2023-05-24T10:48:26.270Z,3.75
2023-05-24T10:50:53.037Z,4.80
2023-05-24T10:53:27.286Z,4.22
2023-05-24T10:56:01.062Z,3.80
2023-05-24T10:58:58.844Z,3.15
2023-05-24T11:01:33.557Z,5.95
2023-05-24T11:04:18.185Z,4.18
2023-05-24T11:07:01.561Z,3.35
2023-05-24T11:09:28.263Z,4.70
2023-05-24T11:12:00.693Z,3.63
2023-05-24T11:14:29.363Z,4.75
2023-05-24T11:16:57.855Z,3.38
2023-05-24T11:19:32.804Z,3.92
2023-05-24T11:22:00.956Z,3.97
2023-05-24T11:24:34.218Z,3.75
2023-05-24T11:27:05.309Z,3.92
2023-05-24T11:29:31.933Z,4.35
2023-05-24T11:32:07.873Z,3.78
2023-05-24T11:34:35.224Z,4.18
2023-05-24T11:37:03.223Z,4.03
2023-05-24T11:39:35.466Z,3.40
2023-05-24T11:42:06.569Z,3.70
2023-05-24T11:44:34.202Z,3.90
2023-05-24T11:47:07.368Z,3.95
2023-05-24T11:49:34.716Z,3.80
2023-05-24T11:52:02.639Z,4.18
2023-05-24T11:54:30.191Z,3.65
2023-05-24T11:56:57.300Z,3.50
2023-05-24T11:59:30.974Z,4.03
2023-05-24T12:02:04.403Z,4.38
2023-05-24T12:04:33.139Z,4.00
2023-05-24T12:07:00.463Z,3.78
2023-05-24T12:09:27.930Z,3.45
2023-05-24T12:11:55.310Z,3.58
2023-05-24T12:14:32.872Z,3.75
2023-05-24T12:17:00.947Z,3.58
2023-05-24T12:19:38.839Z,4.00
2023-05-24T12:22:12.712Z,3.50
2023-05-24T12:24:39.244Z,4.00
2023-05-24T12:27:13.929Z,4.05
2023-05-24T12:29:46.830Z,3.92
2023-05-24T12:32:14.667Z,4.07
2023-05-24T12:34:43.706Z,3.80
2023-05-24T12:37:21.254Z,4.03
2023-05-24T12:39:51.240Z,3.97
2023-05-24T12:42:19.502Z,4.00
2023-05-24T12:44:46.052Z,4.18
2023-05-24T12:47:12.818Z,3.97
2023-05-24T12:49:45.126Z,4.00
2023-05-24T12:52:12.608Z,4.05
2023-05-24T12:54:42.005Z,3.90
2023-05-24T12:57:09.103Z,3.70
2023-05-24T12:59:35.667Z,3.95
2023-05-24T13:02:02.510Z,4.30
2023-05-24T13:04:31.506Z,3.50
2023-05-24T13:06:58.030Z,3.80
2023-05-24T13:09:25.951Z,4.30
2023-05-24T13:11:54.087Z,4.05
2023-05-24T13:14:21.325Z,3.90
2023-05-24T13:17:02.376Z,4.05
2023-05-24T13:19:29.487Z,4.28
2023-05-24T13:21:56.064Z,3.90
2023-05-24T13:24:23.177Z,3.60
2023-05-24T13:26:52.256Z,3.90
2023-05-24T13:29:34.101Z,4.47
2023-05-24T13:32:03.637Z,4.90
2023-05-24T13:34:41.508Z,3.72
2023-05-24T13:37:08.764Z,4.68
2023-05-24T13:39:35.526Z,4.57
2023-05-24T13:42:02.592Z,3.70
2023-05-24T13:44:29.453Z,4.07
2023-05-24T13:46:56.568Z,3.95
2023-05-24T13:49:23.205Z,3.90
2023-05-24T13:51:50.477Z,3.85
2023-05-24T13:54:17.521Z,3.53
2023-05-24T13:56:44.846Z,5.00
2023-05-24T13:59:11.975Z,4.43
2023-05-24T14:01:39.139Z,3.55
2023-05-24T14:04:07.014Z,4.13
2023-05-24T14:06:48.784Z,4.00
2023-05-24T14:09:15.566Z,4.05
2023-05-24T14:11:42.121Z,4.32
2023-05-24T14:16:38.128Z,4.45
2023-05-24T14:19:04.703Z,3.85
2023-05-24T14:21:32.307Z,3.42
2023-05-24T14:23:58.960Z,3.90
2023-05-24T14:26:25.528Z,4.43
2023-05-24T14:28:55.257Z,3.95
2023-05-24T14:31:25.878Z,3.55
2023-05-24T14:33:52.509Z,3.85
2023-05-24T14:36:19.243Z,4.07
2023-05-24T14:38:46.170Z,4.03
2023-05-24T14:41:12.813Z,4.05
2023-05-24T14:43:40.297Z,3.90
2023-05-24T14:46:06.860Z,3.60
2023-05-24T14:48:33.393Z,3.55
2023-05-24T14:50:59.969Z,3.83
2023-05-24T14:53:26.585Z,3.70
2023-05-24T14:55:54.299Z,3.50
2023-05-24T14:58:21.082Z,3.70
2023-05-24T15:00:47.985Z,4.20
2023-05-24T15:03:14.985Z,3.75
2023-05-24T15:05:42.779Z,3.63
2023-05-24T15:08:13.694Z,3.55
2023-05-24T15:10:40.591Z,4.22
2023-05-24T15:13:08.046Z,4.25
2023-05-24T15:15:34.551Z,3.60
2023-05-24T15:18:01.231Z,3.92
2023-05-24T15:20:28.040Z,3.75
2023-05-24T15:22:54.870Z,4.00
2023-05-24T15:25:22.246Z,3.88
2023-05-24T15:27:48.864Z,3.42
2023-05-24T15:30:19.956Z,3.58
2023-05-24T15:32:46.826Z,3.65
2023-05-24T15:35:17.335Z,4.40
2023-05-24T15:37:43.917Z,3.70
2023-05-24T15:40:13.688Z,3.83
2023-05-24T15:42:40.274Z,3.08
2023-05-24T15:45:07.624Z,3.58
2023-05-24T15:47:39.477Z,3.80
2023-05-24T15:50:08.448Z,3.67
2023-05-24T15:52:36.023Z,3.88
2023-05-24T15:55:02.558Z,3.45
2023-05-24T15:57:29.077Z,4.13
2023-05-24T15:59:55.589Z,3.58
2023-05-24T16:02:22.383Z,3.22
2023-05-24T16:04:49.974Z,3.75
2023-05-24T16:07:18.066Z,3.97
2023-05-24T16:09:46.758Z,3.03
2023-05-24T16:12:13.338Z,3.38
2023-05-24T16:14:39.891Z,3.40
2023-05-24T16:17:06.661Z,3.65
2023-05-24T16:19:36.126Z,3.78
2023-05-24T16:22:03.085Z,3.70
2023-05-24T16:24:29.606Z,3.97
2023-05-24T16:26:57.322Z,3.35
2023-05-24T16:29:24.579Z,3.60
2023-05-24T16:31:51.086Z,4.03
2023-05-24T16:34:38.749Z,3.58
2023-05-24T16:37:11.632Z,4.00
2023-05-24T16:39:38.571Z,4.25
2023-05-24T16:42:07.043Z,3.58
2023-05-24T16:44:33.621Z,3.70
2023-05-24T16:47:00.153Z,3.65
2023-05-24T16:49:26.641Z,3.63
2023-05-24T16:51:53.177Z,3.88
2023-05-24T16:54:19.759Z,3.70
2023-05-24T16:56:46.300Z,3.42
2023-05-24T16:59:12.884Z,3.72
2023-05-24T17:01:40.109Z,3.60
2023-05-24T17:04:07.053Z,3.97
2023-05-24T17:06:33.659Z,3.70
2023-05-24T17:09:00.186Z,3.67
2023-05-24T17:11:26.668Z,3.47
2023-05-24T17:13:53.196Z,3.95
2023-05-24T17:16:20.597Z,3.47
2023-05-24T17:18:47.328Z,3.83
2023-05-24T17:21:14.036Z,3.63
2023-05-24T17:23:40.649Z,3.35
2023-05-24T17:26:11.349Z,3.30
2023-05-24T17:28:37.853Z,3.78
2023-05-24T17:31:04.540Z,3.53
2023-05-24T17:33:41.377Z,4.10
2023-05-24T17:36:09.449Z,3.47
2023-05-24T17:38:39.506Z,4.15
2023-05-24T17:41:09.645Z,4.45
2023-05-24T17:43:39.112Z,3.70
2023-05-24T17:46:08.309Z,4.10
2023-05-24T17:48:37.340Z,4.15
2023-05-24T17:51:07.443Z,3.80
2023-05-24T17:53:35.293Z,4.55
2023-05-24T17:56:03.168Z,4.25
2023-05-24T17:58:30.860Z,4.50
2023-05-24T18:00:58.660Z,4.05
2023-05-24T18:03:25.344Z,3.72
2023-05-24T18:05:51.881Z,3.60
2023-05-24T18:08:18.985Z,3.78
2023-05-24T18:10:45.806Z,4.20
2023-05-24T18:13:12.607Z,4.05
2023-05-24T18:15:39.121Z,4.00
2023-05-24T18:18:05.999Z,3.85
2023-05-24T18:20:32.695Z,3.85
2023-05-24T18:22:59.548Z,4.07
2023-05-24T18:25:34.569Z,3.97
2023-05-24T18:28:01.956Z,3.55
2023-05-24T18:30:28.656Z,3.63
2023-05-24T18:35:29.668Z,4.00
2023-05-24T18:38:01.964Z,4.05
2023-05-24T18:40:28.509Z,4.15
2023-05-24T18:42:55.086Z,4.40
2023-05-24T18:45:21.853Z,3.85
2023-05-24T18:47:48.390Z,4.30
2023-05-24T18:50:16.954Z,4.20
2023-05-24T18:52:46.344Z,3.50
2023-05-24T18:55:23.249Z,3.92
2023-05-24T18:57:55.050Z,4.65
2023-05-24T19:00:22.820Z,4.00
2023-05-24T19:02:49.840Z,4.03
2023-05-24T19:05:16.657Z,4.10
2023-05-24T19:07:43.285Z,4.10
2023-05-24T19:10:10.223Z,4.38
2023-05-24T19:12:36.805Z,4.53
2023-05-24T19:15:10.043Z,4.63
2023-05-24T19:17:36.640Z,4.50
2023-05-24T19:20:03.794Z,4.50
2023-05-24T19:22:33.320Z,3.90
2023-05-24T19:24:59.901Z,4.40
2023-05-24T19:27:36.273Z,4.35
2023-05-24T19:30:05.329Z,4.47
2023-05-24T19:32:31.886Z,3.65
2023-05-24T19:34:58.454Z,4.05
2023-05-24T19:37:24.985Z,3.83
2023-05-24T19:39:51.509Z,4.78
2023-05-24T19:42:18.153Z,3.90
2023-05-24T19:44:44.689Z,4.20
2023-05-24T19:47:11.235Z,3.85
2023-05-24T19:49:37.835Z,4.15
2023-05-24T19:52:07.067Z,4.25
2023-05-24T19:54:33.602Z,4.47
2023-05-24T19:57:01.684Z,4.80
2023-05-24T19:59:28.360Z,3.80
2023-05-24T20:01:54.988Z,3.70
2023-05-24T20:04:21.928Z,4.22
2023-05-24T20:06:48.459Z,3.42
2023-05-24T20:09:18.745Z,4.00
2023-05-24T20:11:51.333Z,4.50
2023-05-24T20:14:18.081Z,3.78
2023-05-24T20:16:44.727Z,3.83
2023-05-24T20:19:11.870Z,3.63
2023-05-24T20:21:38.394Z,4.50
2023-05-24T20:24:05.467Z,4.72
2023-05-24T20:26:33.326Z,4.20
2023-05-24T20:29:05.033Z,4.05
2023-05-24T20:31:31.665Z,3.65
2023-05-24T20:33:58.274Z,4.47
2023-05-24T20:36:30.586Z,4.28
2023-05-24T20:38:57.120Z,3.92
2023-05-24T20:41:23.888Z,3.35
2023-05-24T20:43:51.382Z,4.50
2023-05-24T20:46:18.148Z,4.13
2023-05-24T20:48:44.916Z,5.00
2023-05-24T20:51:11.403Z,4.30
2023-05-24T20:53:38.924Z,5.07
2023-05-24T20:56:05.650Z,4.50
2023-05-24T20:58:32.202Z,5.20
2023-05-24T21:00:59.212Z,5.35
2023-05-24T21:03:25.882Z,5.40
2023-05-24T21:05:52.448Z,5.60
2023-05-24T21:08:19.047Z,4.80
2023-05-24T21:10:48.199Z,5.28
2023-05-24T21:13:14.824Z,5.30
2023-05-24T21:15:43.758Z,4.80
2023-05-24T21:18:11.908Z,5.57
2023-05-24T21:20:38.642Z,4.95
2023-05-24T21:23:05.164Z,5.10
2023-05-24T21:25:43.506Z,5.38
2023-05-24T21:28:13.880Z,5.15
2023-05-24T21:30:40.391Z,4.85
2023-05-24T21:33:07.017Z,4.35
2023-05-24T21:35:33.602Z,4.70
2023-05-24T21:38:00.638Z,5.00
2023-05-24T21:40:27.166Z,4.57
2023-05-24T21:42:53.917Z,5.22
2023-05-24T21:45:20.480Z,4.80
2023-05-24T21:47:47.040Z,5.90
2023-05-24T21:50:13.585Z,4.93
2023-05-24T21:52:43.142Z,5.03
2023-05-24T21:55:10.088Z,5.32
2023-05-24T21:57:36.670Z,5.25
2023-05-24T22:00:04.113Z,5.40
2023-05-24T22:02:31.830Z,6.10
2023-05-24T22:04:58.414Z,5.45
2023-05-24T22:07:24.912Z,5.95
2023-05-24T22:12:32.933Z,6.10
2023-05-24T22:15:03.105Z,5.22
2023-05-24T22:17:32.744Z,5.88
2023-05-24T22:20:02.268Z,5.25
2023-05-24T22:22:29.797Z,5.10
2023-05-24T22:25:01.840Z,5.22
2023-05-24T22:27:29.577Z,5.15
2023-05-24T22:29:56.226Z,5.10
2023-05-24T22:32:29.483Z,4.80
2023-05-24T22:34:56.100Z,4.32
2023-05-24T22:37:22.633Z,4.63
2023-05-24T22:39:49.183Z,4.65
2023-05-24T22:42:15.953Z,5.03
2023-05-24T22:44:42.466Z,5.10
2023-05-24T22:47:11.914Z,5.05
2023-05-24T22:49:38.479Z,4.57
2023-05-24T22:52:06.939Z,4.85
2023-05-24T22:54:33.498Z,4.50
2023-05-24T22:57:00.040Z,4.97
2023-05-24T22:59:26.555Z,4.60
2023-05-24T23:01:53.181Z,5.05
2023-05-24T23:04:21.831Z,5.38
2023-05-24T23:06:52.855Z,4.72
2023-05-24T23:09:28.822Z,4.40
2023-05-24T23:11:58.535Z,5.30
2023-05-24T23:14:25.396Z,5.10
2023-05-24T23:16:51.955Z,5.22
2023-05-24T23:19:19.090Z,5.55
2023-05-24T23:21:45.957Z,4.90
2023-05-24T23:24:21.899Z,5.57
2023-05-24T23:26:48.541Z,5.40
2023-05-24T23:29:15.188Z,4.40
2023-05-24T23:31:48.117Z,4.07
2023-05-24T23:34:14.739Z,4.38
2023-05-24T23:36:45.718Z,5.07
2023-05-24T23:39:12.643Z,6.15
2023-05-24T23:41:39.233Z,5.80
2023-05-24T23:44:05.853Z,5.97
2023-05-24T23:46:39.902Z,4.95
2023-05-24T23:49:06.492Z,5.35
2023-05-24T23:51:33.466Z,5.35
2023-05-24T23:54:03.099Z,4.82
2023-05-24T23:56:29.604Z,4.88
2023-05-24T23:58:56.178Z,4.63
